createdAt,value
2023-04-02T00:00:57.387Z,2.20
2023-04-02T00:06:45.137Z,2.80
2023-04-02T00:11:54.862Z,3.00
2023-04-02T00:16:59.963Z,2.70
2023-04-02T00:22:07.619Z,2.50
2023-04-02T00:27:14.947Z,1.90
2023-04-02T00:32:23.322Z,1.60
2023-04-02T00:37:39.101Z,2.40
2023-04-02T00:42:44.951Z,3.00
2023-04-02T00:47:47.926Z,3.20
2023-04-02T00:52:54.412Z,3.10
2023-04-02T00:57:58.688Z,3.10
2023-04-02T01:03:16.869Z,2.40
2023-04-02T01:08:43.349Z,2.50
2023-04-02T01:14:03.347Z,2.00
2023-04-02T01:19:21.513Z,3.50
2023-04-02T01:24:30.291Z,4.40
2023-04-02T01:29:39.716Z,3.90
2023-04-02T01:34:44.963Z,3.70
2023-04-02T01:40:06.823Z,3.00
2023-04-02T01:45:11.463Z,2.80
2023-04-02T01:50:20.474Z,3.70
2023-04-02T01:55:35.248Z,3.60
2023-04-02T02:00:48.729Z,3.80
2023-04-02T02:05:51.879Z,4.00
2023-04-02T02:10:54.758Z,3.80
2023-04-02T02:16:02.119Z,3.80
2023-04-02T02:21:09.781Z,3.30
2023-04-02T02:26:14.735Z,3.90
2023-04-02T02:31:22.913Z,4.50
2023-04-02T02:36:40.740Z,4.30
2023-04-02T02:41:46.595Z,4.40
2023-04-02T02:46:55.950Z,3.60
2023-04-02T02:52:11.746Z,3.90
2023-04-02T02:57:20.847Z,3.60
2023-04-02T03:02:26.511Z,3.60
2023-04-02T03:07:31.208Z,3.40
2023-04-02T03:12:47.634Z,4.00
2023-04-02T03:18:06.646Z,3.10
2023-04-02T03:23:12.691Z,2.70
2023-04-02T03:28:27.503Z,3.00
2023-04-02T03:33:36.118Z,3.60
2023-04-02T03:38:47.314Z,3.50
2023-04-02T03:43:55.508Z,3.10
2023-04-02T03:49:06.949Z,3.60
2023-04-02T03:54:16.700Z,3.40
2023-04-02T03:59:32.924Z,2.00
2023-04-02T04:04:40.980Z,2.20
2023-04-02T04:09:47.237Z,3.20
2023-04-02T04:14:58.646Z,2.70
2023-04-02T04:20:36.877Z,3.80
2023-04-02T04:25:40.459Z,3.70
2023-04-02T04:31:04.318Z,3.80
2023-04-02T04:36:30.034Z,3.50
2023-04-02T04:41:39.432Z,3.10
2023-04-02T04:46:54.472Z,3.60
2023-04-02T04:52:10.389Z,4.00
2023-04-02T04:57:34.788Z,3.50
2023-04-02T05:02:45.967Z,3.50
2023-04-02T05:08:00.931Z,4.00
2023-04-02T05:13:21.598Z,3.20
2023-04-02T05:18:56.831Z,3.40
2023-04-02T05:24:17.373Z,3.00
2023-04-02T05:29:30.789Z,3.20
2023-04-02T05:34:37.699Z,2.40
2023-04-02T05:39:46.439Z,2.60
2023-04-02T05:44:58.181Z,2.80
2023-04-02T05:50:08.276Z,3.10
2023-04-02T05:55:17.403Z,2.70
2023-04-02T06:00:43.964Z,3.00
2023-04-02T06:05:47.072Z,2.60
2023-04-02T06:11:05.113Z,3.60
2023-04-02T06:16:10.704Z,3.30
2023-04-02T06:21:17.700Z,4.40
2023-04-02T06:26:32.884Z,2.90
2023-04-02T06:31:48.317Z,2.80
2023-04-02T06:36:57.593Z,3.10
2023-04-02T06:42:05.628Z,3.00
2023-04-02T06:47:32.766Z,3.30
2023-04-02T06:52:58.872Z,2.90
2023-04-02T06:58:01.898Z,3.10
2023-04-02T07:03:16.064Z,2.70
2023-04-02T07:08:19.401Z,3.20
2023-04-02T07:13:23.789Z,2.90
2023-04-02T07:18:33.577Z,3.00
2023-04-02T07:23:36.887Z,3.30
2023-04-02T07:28:39.903Z,3.60
2023-04-02T07:33:42.794Z,3.00
2023-04-02T07:38:46.504Z,3.20
2023-04-02T07:43:49.433Z,3.20
2023-04-02T07:48:52.242Z,2.90
2023-04-02T07:53:56.540Z,2.60
2023-04-02T07:58:59.469Z,3.30
2023-04-02T08:04:05.155Z,2.40
2023-04-02T08:09:08.143Z,3.10
2023-04-02T08:14:11.677Z,3.80
2023-04-02T08:19:14.986Z,3.60
2023-04-02T08:24:21.684Z,2.60
2023-04-02T08:29:24.767Z,2.90
2023-04-02T08:34:28.609Z,3.60
2023-04-02T08:39:33.474Z,3.00
2023-04-02T08:44:46.162Z,3.30
2023-04-02T08:49:51.554Z,3.20
2023-04-02T08:54:57.143Z,3.30
2023-04-02T09:00:10.877Z,3.30
2023-04-02T09:05:28.654Z,3.20
2023-04-02T09:10:42.709Z,2.30
2023-04-02T09:15:46.027Z,2.90
2023-04-02T09:20:50.345Z,3.20
2023-04-02T09:26:04.173Z,3.40
2023-04-02T09:31:25.300Z,3.50
2023-04-02T09:36:40.331Z,3.60
2023-04-02T09:41:48.105Z,3.20
2023-04-02T09:47:04.178Z,3.30
2023-04-02T09:52:21.400Z,3.40
2023-04-02T09:57:27.841Z,3.70
2023-04-02T10:02:32.352Z,3.00
2023-04-02T10:07:49.473Z,3.40
2023-04-02T10:13:00.362Z,2.40
2023-04-02T10:18:13.606Z,3.10
2023-04-02T10:23:22.161Z,2.50
2023-04-02T10:28:45.326Z,2.90
2023-04-02T10:33:54.986Z,2.70
2023-04-02T10:44:27.114Z,2.80
2023-04-02T10:49:47.143Z,2.80
2023-04-02T10:54:57.374Z,2.50
2023-04-02T11:00:11.166Z,3.00
2023-04-02T11:05:29.315Z,2.80
2023-04-02T11:10:39.910Z,2.30
2023-04-02T11:15:43.036Z,2.90
2023-04-02T11:20:48.782Z,2.30
2023-04-02T11:25:51.786Z,2.50
2023-04-02T11:30:56.740Z,2.70
2023-04-02T11:35:59.992Z,2.40
2023-04-02T11:41:02.958Z,2.20
2023-04-02T11:46:45.722Z,2.60
2023-04-02T11:51:54.352Z,2.20
2023-04-02T11:57:47.516Z,2.30
2023-04-02T12:02:53.516Z,1.80
2023-04-02T12:08:27.829Z,2.50
2023-04-02T12:13:40.076Z,2.80
2023-04-02T12:18:47.157Z,2.30
2023-04-02T12:23:54.210Z,2.10
2023-04-02T12:29:16.105Z,2.30
2023-04-02T12:34:21.567Z,2.60
2023-04-02T12:39:26.734Z,2.70
2023-04-02T12:44:31.470Z,2.20
2023-04-02T12:49:40.315Z,2.30
2023-04-02T12:54:55.695Z,2.50
2023-04-02T13:00:06.446Z,2.40
2023-04-02T13:05:10.213Z,2.10
2023-04-02T13:10:26.241Z,1.90
2023-04-02T13:15:34.578Z,1.60
2023-04-02T13:20:40.261Z,1.60
2023-04-02T13:25:44.126Z,1.80
2023-04-02T13:30:47.480Z,2.10
2023-04-02T13:35:50.735Z,1.70
2023-04-02T13:40:53.802Z,2.10
2023-04-02T13:46:00.038Z,1.70
2023-04-02T13:51:02.996Z,1.70
2023-04-02T13:56:08.559Z,2.30
2023-04-02T14:01:12.308Z,2.00
2023-04-02T14:06:30.338Z,2.00
2023-04-02T14:11:42.767Z,1.90
2023-04-02T14:16:45.715Z,1.80
2023-04-02T14:22:06.910Z,1.70
2023-04-02T14:27:29.983Z,1.80
2023-04-02T14:32:59.306Z,1.90
2023-04-02T14:38:21.666Z,1.80
2023-04-02T14:43:39.724Z,2.10
2023-04-02T14:49:00.563Z,2.10
2023-04-02T14:54:37.859Z,1.50
2023-04-02T15:00:13.547Z,1.90
2023-04-02T15:05:35.788Z,1.60
2023-04-02T15:10:49.241Z,2.00
2023-04-02T15:15:59.735Z,2.10
2023-04-02T15:21:25.784Z,2.10
2023-04-02T15:26:28.571Z,2.10
2023-04-02T15:31:34.445Z,2.40
2023-04-02T15:37:01.118Z,1.90
2023-04-02T15:42:35.598Z,1.90
2023-04-02T15:47:46.906Z,1.90
2023-04-02T15:53:04.918Z,1.90
2023-04-02T15:58:47.018Z,1.90
2023-04-02T16:04:24.405Z,1.90
2023-04-02T16:09:30.970Z,1.70
2023-04-02T16:14:46.962Z,1.90
2023-04-02T16:19:54.698Z,2.00
2023-04-02T16:25:03.028Z,1.80
2023-04-02T16:30:27.203Z,1.80
2023-04-02T16:36:01.527Z,1.80
2023-04-02T16:41:13.155Z,1.70
2023-04-02T16:47:01.547Z,1.80
2023-04-02T16:52:04.531Z,1.70
2023-04-02T16:57:19.869Z,1.90
2023-04-02T17:03:00.873Z,2.60
2023-04-02T17:08:10.173Z,1.60
2023-04-02T17:13:41.348Z,1.60
2023-04-02T17:18:48.345Z,2.10
2023-04-02T17:23:56.702Z,1.80
2023-04-02T17:29:07.059Z,2.00
2023-04-02T17:34:16.222Z,1.60
2023-04-02T17:39:25.759Z,2.00
2023-04-02T17:44:47.615Z,1.80
2023-04-02T17:50:31.893Z,2.00
2023-04-02T17:56:07.136Z,1.90
2023-04-02T18:01:13.593Z,1.90
2023-04-02T18:06:39.368Z,1.80
2023-04-02T18:11:48.336Z,1.90
2023-04-02T18:17:36.401Z,2.30
2023-04-02T18:23:12.472Z,1.70
2023-04-02T18:28:33.914Z,1.90
2023-04-02T18:34:03.990Z,1.60
2023-04-02T18:39:16.988Z,2.00
2023-04-02T18:44:41.925Z,1.70
2023-04-02T18:49:54.233Z,1.90
2023-04-02T18:55:07.580Z,2.10
2023-04-02T19:00:30.358Z,1.90
2023-04-02T19:06:13.090Z,1.90
2023-04-02T19:11:20.501Z,1.60
2023-04-02T19:16:35.998Z,1.70
2023-04-02T19:22:01.125Z,1.90
2023-04-02T19:27:25.962Z,1.40
2023-04-02T19:33:10.222Z,2.00
2023-04-02T19:38:13.121Z,1.90
2023-04-02T19:43:16.169Z,2.10
2023-04-02T19:48:22.209Z,2.00
2023-04-02T19:53:25.213Z,2.30
2023-04-02T19:58:28.224Z,2.00
2023-04-02T20:03:31.742Z,2.10
2023-04-02T20:08:36.384Z,2.20
2023-04-02T20:13:39.265Z,2.20
2023-04-02T20:18:42.501Z,2.00
2023-04-02T20:23:45.768Z,1.90
2023-04-02T20:28:48.864Z,2.20
2023-04-02T20:33:56.667Z,1.70
2023-04-02T20:38:59.660Z,1.70
2023-04-02T20:44:03.177Z,2.10
2023-04-02T20:49:06.073Z,2.00
2023-04-02T20:54:08.986Z,2.20
2023-04-02T20:59:12.190Z,2.00
2023-04-02T21:04:15.200Z,1.90
2023-04-02T21:09:19.858Z,2.30
2023-04-02T21:14:22.748Z,2.00
2023-04-02T21:19:28.008Z,1.80
2023-04-02T21:24:30.908Z,2.00
2023-04-02T21:29:33.811Z,2.00
2023-04-02T21:34:36.813Z,2.10
2023-04-02T21:39:39.717Z,2.20
2023-04-02T21:44:42.572Z,4.40
2023-04-02T21:49:45.427Z,2.20
2023-04-02T21:54:48.338Z,1.70
2023-04-02T21:59:51.233Z,3.10
2023-04-02T22:04:54.441Z,2.60
2023-04-02T22:09:57.356Z,1.80
2023-04-02T22:15:00.678Z,4.90
2023-04-02T22:20:05.129Z,3.40
2023-04-02T22:25:09.110Z,2.00
2023-04-02T22:30:12.741Z,2.40
2023-04-02T22:35:17.497Z,3.10
2023-04-02T22:40:20.404Z,2.20
2023-04-02T22:45:23.407Z,3.30
2023-04-02T22:50:26.617Z,2.50
2023-04-02T22:55:29.522Z,2.70
2023-04-02T23:00:32.425Z,2.00
2023-04-02T23:05:35.333Z,1.80
2023-04-02T23:10:38.415Z,2.10
2023-04-02T23:15:44.656Z,1.60
2023-04-02T23:20:47.635Z,2.10
2023-04-02T23:25:50.534Z,2.50
2023-04-02T23:30:53.651Z,1.90
2023-04-02T23:35:56.693Z,1.40
2023-04-02T23:40:59.659Z,1.60
2023-04-02T23:46:02.870Z,3.70
2023-04-02T23:51:07.357Z,1.80
2023-04-02T23:56:10.467Z,2.10
